createdAt,value
2022-11-08T00:00:57.874Z,4.66
2022-11-08T00:03:29.620Z,4.79
2022-11-08T00:06:17.756Z,4.85
2022-11-08T00:09:08.630Z,4.74
2022-11-08T00:11:56.810Z,4.85
2022-11-08T00:14:26.529Z,4.93
2022-11-08T00:16:56.121Z,4.71
2022-11-08T00:19:25.758Z,4.88
2022-11-08T00:21:58.014Z,4.81
2022-11-08T00:24:27.758Z,4.77
2022-11-08T00:26:57.493Z,4.62
2022-11-08T00:29:27.125Z,4.62
2022-11-08T00:31:59.746Z,4.66
2022-11-08T00:34:29.366Z,4.58
2022-11-08T00:36:59.033Z,4.78
2022-11-08T00:39:28.883Z,4.73
2022-11-08T00:42:01.903Z,4.54
2022-11-08T00:44:31.713Z,4.64
2022-11-08T00:47:01.386Z,4.68
2022-11-08T00:49:31.315Z,4.59
2022-11-08T00:52:00.932Z,4.60
2022-11-08T00:54:30.543Z,4.40
2022-11-08T00:57:00.238Z,4.36
2022-11-08T00:59:29.749Z,4.57
2022-11-08T01:01:59.432Z,4.38
2022-11-08T01:04:28.381Z,4.30
2022-11-08T01:06:57.952Z,4.16
2022-11-08T01:09:27.570Z,3.96
2022-11-08T01:11:56.476Z,4.14
2022-11-08T01:14:26.080Z,3.95
2022-11-08T01:16:55.707Z,3.96
2022-11-08T01:19:25.213Z,3.99
2022-11-08T01:21:54.762Z,4.14
2022-11-08T01:24:24.342Z,4.14
2022-11-08T01:26:54.367Z,4.36
2022-11-08T01:29:23.965Z,4.31
2022-11-08T01:31:53.467Z,4.35
2022-11-08T01:34:23.107Z,4.20
2022-11-08T01:36:52.693Z,4.51
2022-11-08T01:39:22.365Z,4.32
2022-11-08T01:41:51.962Z,4.34
2022-11-08T01:44:22.383Z,4.47
2022-11-08T01:46:52.059Z,4.49
2022-11-08T01:49:39.435Z,4.64
2022-11-08T01:52:30.503Z,4.76
2022-11-08T01:55:30.335Z,4.79
2022-11-08T01:58:10.942Z,4.82
2022-11-08T02:00:41.160Z,4.97
2022-11-08T02:03:16.763Z,4.96
2022-11-08T02:05:47.479Z,4.98
2022-11-08T02:08:42.398Z,4.84
2022-11-08T02:11:18.443Z,4.80
2022-11-08T02:13:46.361Z,4.74
2022-11-08T02:16:17.633Z,4.60
2022-11-08T02:18:49.133Z,4.72
2022-11-08T02:21:39.047Z,4.66
2022-11-08T02:24:13.133Z,4.65
2022-11-08T02:26:42.322Z,4.65
2022-11-08T02:29:36.491Z,4.75
2022-11-08T02:32:06.597Z,4.70
2022-11-08T02:34:49.871Z,4.65
2022-11-08T02:37:22.117Z,4.78
2022-11-08T02:39:53.438Z,4.72
2022-11-08T02:42:23.000Z,4.86
2022-11-08T02:44:51.684Z,5.11
2022-11-08T02:47:21.109Z,4.89
2022-11-08T02:49:51.358Z,4.91
2022-11-08T02:52:21.264Z,4.94
2022-11-08T02:54:50.044Z,5.01
2022-11-08T02:57:19.558Z,4.95
2022-11-08T02:59:49.406Z,4.96
2022-11-08T03:02:18.234Z,4.95
2022-11-08T03:04:47.901Z,4.98
2022-11-08T03:07:22.147Z,4.89
2022-11-08T03:09:54.287Z,4.60
2022-11-08T03:12:23.092Z,4.67
2022-11-08T03:14:52.754Z,4.48
2022-11-08T03:17:22.299Z,4.00
2022-11-08T03:19:51.815Z,4.02
2022-11-08T03:22:21.396Z,4.32
2022-11-08T03:24:50.936Z,4.31
2022-11-08T03:27:21.403Z,4.28
2022-11-08T03:29:51.028Z,4.13
2022-11-08T03:32:20.640Z,4.07
2022-11-08T03:34:50.268Z,3.95
2022-11-08T03:37:23.340Z,3.88
2022-11-08T03:39:53.029Z,3.95
2022-11-08T03:42:23.786Z,3.97
2022-11-08T03:44:53.477Z,4.04
2022-11-08T03:47:24.075Z,4.12
2022-11-08T03:49:53.735Z,4.21
2022-11-08T03:52:24.332Z,4.13
2022-11-08T03:54:54.885Z,4.16
2022-11-08T03:57:22.737Z,4.07
2022-11-08T03:59:53.291Z,4.21
2022-11-08T04:02:24.400Z,4.01
2022-11-08T04:04:54.129Z,4.05
2022-11-08T04:07:23.913Z,4.17
2022-11-08T04:09:53.537Z,4.23
2022-11-08T04:12:41.747Z,4.02
2022-11-08T04:15:16.976Z,4.06
2022-11-08T04:18:09.202Z,4.29
2022-11-08T04:21:04.393Z,4.29
2022-11-08T04:23:37.254Z,4.34
2022-11-08T04:26:11.852Z,4.47
2022-11-08T04:28:43.051Z,4.52
2022-11-08T04:31:22.696Z,4.44
2022-11-08T04:33:52.333Z,4.37
2022-11-08T04:36:21.986Z,4.49
2022-11-08T04:38:52.926Z,4.53
2022-11-08T04:41:25.742Z,4.59
2022-11-08T04:43:57.765Z,4.58
2022-11-08T04:46:29.813Z,4.28
2022-11-08T04:49:01.310Z,4.38
2022-11-08T04:51:33.837Z,4.12
2022-11-08T04:54:06.413Z,4.12
2022-11-08T04:56:35.954Z,4.16
2022-11-08T04:59:09.467Z,3.87
2022-11-08T05:01:49.252Z,4.02
2022-11-08T05:04:19.041Z,4.11
2022-11-08T05:06:48.576Z,4.08
2022-11-08T05:09:18.128Z,3.94
2022-11-08T05:11:47.714Z,3.91
2022-11-08T05:14:17.210Z,3.93
2022-11-08T05:16:46.032Z,4.07
2022-11-08T05:19:35.505Z,4.15
2022-11-08T05:22:23.524Z,3.91
2022-11-08T05:24:53.075Z,3.98
2022-11-08T05:27:22.586Z,4.09
2022-11-08T05:29:51.366Z,4.15
2022-11-08T05:32:21.369Z,4.14
2022-11-08T05:34:52.202Z,4.45
2022-11-08T05:37:21.910Z,4.29
2022-11-08T05:39:51.524Z,4.36
2022-11-08T05:42:20.376Z,4.45
2022-11-08T05:44:49.936Z,4.45
2022-11-08T05:47:17.989Z,4.30
2022-11-08T05:49:46.718Z,4.28
2022-11-08T05:52:15.559Z,4.53
2022-11-08T05:54:53.578Z,4.61
2022-11-08T05:57:23.688Z,4.71
2022-11-08T05:59:53.222Z,4.89
2022-11-08T06:02:22.829Z,4.92
2022-11-08T06:04:52.478Z,5.02
2022-11-08T06:07:22.031Z,4.95
2022-11-08T06:09:51.668Z,4.85
2022-11-08T06:12:24.467Z,4.78
2022-11-08T06:14:53.252Z,4.97
2022-11-08T06:17:26.299Z,4.99
2022-11-08T06:19:58.665Z,4.91
2022-11-08T06:22:32.814Z,4.87
2022-11-08T06:25:02.737Z,4.96
2022-11-08T06:27:32.691Z,5.09
2022-11-08T06:30:03.197Z,5.11
2022-11-08T06:32:32.789Z,4.89
2022-11-08T06:35:01.563Z,4.79
2022-11-08T06:37:31.158Z,4.99
2022-11-08T06:39:59.904Z,4.96
2022-11-08T06:42:28.631Z,4.99
2022-11-08T06:44:58.157Z,4.99
2022-11-08T06:47:27.036Z,5.12
2022-11-08T06:49:55.766Z,5.22
2022-11-08T06:52:25.347Z,5.31
2022-11-08T06:54:54.166Z,5.46
2022-11-08T06:57:23.696Z,5.40
2022-11-08T06:59:53.222Z,5.39
2022-11-08T07:02:21.974Z,5.31
2022-11-08T07:04:50.834Z,5.19
2022-11-08T07:07:19.583Z,5.31
2022-11-08T07:09:51.854Z,5.50
2022-11-08T07:12:21.400Z,5.42
2022-11-08T07:14:50.956Z,5.53
2022-11-08T07:17:20.829Z,5.39
2022-11-08T07:19:50.982Z,5.59
2022-11-08T07:22:21.097Z,5.80
2022-11-08T07:24:50.578Z,5.48
2022-11-08T07:27:20.254Z,5.56
2022-11-08T07:29:49.861Z,5.99
2022-11-08T07:32:19.487Z,5.72
2022-11-08T07:34:54.284Z,6.03
2022-11-08T07:37:31.422Z,5.68
2022-11-08T07:40:00.200Z,5.85
2022-11-08T07:43:04.716Z,5.85
2022-11-08T07:45:25.560Z,6.28
2022-11-08T07:48:11.167Z,5.94
2022-11-08T07:50:44.023Z,6.04
2022-11-08T07:53:13.673Z,6.08
2022-11-08T07:55:43.983Z,5.78
2022-11-08T07:58:14.987Z,5.79
2022-11-08T08:00:46.124Z,6.05
2022-11-08T08:03:16.518Z,6.29
2022-11-08T08:05:57.922Z,6.57
2022-11-08T08:08:31.532Z,6.53
2022-11-08T08:11:03.372Z,6.36
2022-11-08T08:13:33.144Z,6.43
2022-11-08T08:16:03.430Z,6.08
2022-11-08T08:18:33.004Z,6.29
2022-11-08T08:21:02.865Z,6.54
2022-11-08T08:23:35.381Z,6.66
2022-11-08T08:26:05.059Z,6.69
2022-11-08T08:28:35.000Z,6.44
2022-11-08T08:31:07.159Z,6.25
2022-11-08T08:33:38.143Z,6.65
2022-11-08T08:36:08.316Z,6.31
2022-11-08T08:38:44.536Z,6.40
2022-11-08T08:41:17.139Z,6.72
2022-11-08T08:43:49.902Z,6.57
2022-11-08T08:46:19.736Z,6.70
2022-11-08T08:48:49.565Z,6.90
2022-11-08T08:51:19.415Z,6.53
2022-11-08T08:53:50.119Z,6.75
2022-11-08T08:56:19.565Z,6.88
2022-11-08T09:01:39.360Z,6.84
2022-11-08T09:04:09.008Z,7.14
2022-11-08T09:06:38.631Z,6.91
2022-11-08T09:09:08.360Z,7.14
2022-11-08T09:11:38.380Z,7.24
2022-11-08T09:14:07.178Z,7.47
2022-11-08T09:16:36.860Z,7.16
2022-11-08T09:19:06.502Z,7.01
2022-11-08T09:21:36.303Z,7.22
2022-11-08T09:24:06.702Z,7.58
2022-11-08T09:26:36.388Z,7.15
2022-11-08T09:29:05.835Z,7.06
2022-11-08T09:31:35.476Z,7.46
2022-11-08T09:34:05.170Z,7.63
2022-11-08T09:36:34.772Z,7.53
2022-11-08T09:39:04.514Z,7.48
2022-11-08T09:41:54.543Z,7.38
2022-11-08T09:44:49.146Z,7.55
2022-11-08T09:47:39.980Z,7.43
2022-11-08T09:50:44.944Z,7.59
2022-11-08T09:53:20.486Z,7.62
2022-11-08T09:56:05.486Z,7.54
2022-11-08T09:59:21.396Z,7.58
2022-11-08T10:01:50.581Z,7.75
2022-11-08T10:04:29.108Z,7.94
2022-11-08T10:07:43.377Z,7.98
2022-11-08T10:10:36.323Z,8.28
2022-11-08T10:13:28.485Z,8.18
2022-11-08T10:16:20.955Z,8.34
2022-11-08T10:19:16.082Z,8.09
2022-11-08T10:22:13.045Z,8.20
2022-11-08T10:24:58.216Z,7.79
2022-11-08T10:27:43.430Z,8.28
2022-11-08T10:30:33.014Z,8.34
2022-11-08T10:33:22.280Z,7.97
2022-11-08T10:36:11.906Z,8.24
2022-11-08T10:39:11.779Z,8.43
2022-11-08T10:42:22.250Z,8.10
2022-11-08T10:44:51.948Z,8.25
2022-11-08T10:47:30.127Z,8.31
2022-11-08T10:50:03.905Z,8.47
2022-11-08T10:53:02.397Z,8.45
2022-11-08T10:55:38.756Z,8.49
2022-11-08T10:58:36.691Z,7.94
2022-11-08T11:01:18.549Z,8.62
2022-11-08T11:03:53.433Z,8.78
2022-11-08T11:06:33.851Z,8.81
2022-11-08T11:09:23.445Z,8.92
2022-11-08T11:12:09.579Z,8.82
2022-11-08T11:14:40.770Z,8.83
2022-11-08T11:17:19.978Z,8.86
2022-11-08T11:19:57.919Z,8.73
2022-11-08T11:22:35.479Z,8.33
2022-11-08T11:25:24.131Z,8.46
2022-11-08T11:27:59.261Z,8.48
2022-11-08T11:30:36.592Z,8.67
2022-11-08T11:33:29.870Z,8.77
2022-11-08T11:36:13.773Z,9.04
2022-11-08T11:39:06.495Z,9.01
2022-11-08T11:42:31.026Z,8.80
2022-11-08T11:45:27.921Z,8.84
2022-11-08T11:48:01.712Z,8.83
2022-11-08T11:50:49.164Z,9.10
2022-11-08T11:53:33.868Z,8.49
2022-11-08T11:56:48.951Z,8.65
2022-11-08T11:59:46.374Z,8.83
2022-11-08T12:03:07.800Z,9.05
2022-11-08T12:05:46.207Z,8.47
2022-11-08T12:09:19.073Z,8.61
2022-11-08T12:12:11.034Z,8.51
2022-11-08T12:14:58.823Z,8.85
2022-11-08T12:17:50.170Z,8.76
2022-11-08T12:21:22.078Z,8.76
2022-11-08T12:24:04.752Z,8.78
2022-11-08T12:27:06.833Z,8.55
2022-11-08T12:29:45.466Z,8.82
2022-11-08T12:32:34.734Z,8.94
2022-11-08T12:35:55.204Z,8.67
2022-11-08T12:38:43.216Z,8.85
2022-11-08T12:41:52.539Z,8.93
2022-11-08T12:44:34.655Z,8.88
2022-11-08T12:47:48.979Z,8.69
2022-11-08T12:51:01.945Z,8.64
2022-11-08T12:54:20.994Z,8.79
2022-11-08T12:56:53.836Z,8.69
2022-11-08T12:59:42.822Z,8.87
2022-11-08T13:02:28.357Z,8.56
2022-11-08T13:05:18.314Z,8.77
2022-11-08T13:08:09.274Z,8.52
2022-11-08T13:10:58.842Z,8.85
2022-11-08T13:13:54.486Z,8.71
2022-11-08T13:16:29.056Z,8.60
2022-11-08T13:19:07.264Z,8.67
2022-11-08T13:21:42.280Z,8.81
2022-11-08T13:27:44.924Z,8.47
2022-11-08T13:30:17.419Z,8.73
2022-11-08T13:32:59.934Z,8.31
2022-11-08T13:36:01.823Z,8.65
2022-11-08T13:39:11.612Z,8.64
2022-11-08T13:42:18.047Z,8.71
2022-11-08T13:44:59.176Z,8.51
2022-11-08T13:47:35.843Z,8.56
2022-11-08T13:50:31.482Z,8.44
2022-11-08T13:53:20.993Z,8.50
2022-11-08T13:56:18.236Z,8.59
2022-11-08T13:58:48.230Z,8.44
2022-11-08T14:01:22.992Z,8.52
2022-11-08T14:03:54.032Z,8.44
2022-11-08T14:07:04.338Z,8.47
2022-11-08T14:10:09.206Z,8.42
2022-11-08T14:13:07.167Z,8.48
2022-11-08T14:15:57.471Z,8.45
2022-11-08T14:18:31.061Z,8.52
2022-11-08T14:21:03.221Z,8.41
2022-11-08T14:23:40.489Z,8.34
2022-11-08T14:26:23.736Z,8.28
2022-11-08T14:28:54.245Z,8.39
2022-11-08T14:31:35.477Z,8.41
2022-11-08T14:34:03.445Z,8.45
2022-11-08T14:36:33.617Z,8.45
2022-11-08T14:39:12.161Z,8.40
2022-11-08T14:41:48.784Z,8.58
2022-11-08T14:44:19.116Z,8.54
2022-11-08T14:46:50.210Z,8.53
2022-11-08T14:49:38.047Z,8.35
2022-11-08T14:52:26.023Z,8.65
2022-11-08T14:55:25.234Z,8.55
2022-11-08T14:57:57.446Z,8.59
2022-11-08T15:00:28.336Z,8.49
2022-11-08T15:03:05.889Z,8.42
2022-11-08T15:05:56.460Z,8.61
2022-11-08T15:08:54.925Z,8.39
2022-11-08T15:11:40.689Z,8.60
2022-11-08T15:14:22.332Z,8.63
2022-11-08T15:17:02.520Z,8.73
2022-11-08T15:19:45.916Z,8.79
2022-11-08T15:22:36.480Z,8.72
2022-11-08T15:25:15.139Z,8.72
2022-11-08T15:27:51.734Z,8.57
2022-11-08T15:30:31.358Z,8.78
2022-11-08T15:33:36.430Z,8.76
2022-11-08T15:36:17.281Z,8.81
2022-11-08T15:38:50.160Z,8.69
2022-11-08T15:41:40.689Z,8.75
2022-11-08T15:44:17.079Z,8.69
2022-11-08T15:46:48.198Z,8.81
2022-11-08T15:49:28.816Z,8.70
2022-11-08T15:52:01.053Z,8.74
2022-11-08T15:54:28.945Z,8.82
2022-11-08T15:56:57.779Z,8.91
2022-11-08T15:59:30.947Z,8.84
2022-11-08T16:02:03.297Z,8.87
2022-11-08T16:04:31.393Z,8.82
2022-11-08T16:07:01.908Z,8.94
2022-11-08T16:09:33.354Z,9.06
2022-11-08T16:12:04.693Z,9.02
2022-11-08T16:14:34.606Z,9.07
2022-11-08T16:17:04.552Z,8.98
2022-11-08T16:19:35.020Z,9.12
2022-11-08T16:22:07.614Z,8.96
2022-11-08T16:24:35.629Z,8.97
2022-11-08T16:27:06.212Z,8.83
2022-11-08T16:29:36.286Z,8.98
2022-11-08T16:32:04.772Z,8.97
2022-11-08T16:34:34.489Z,8.80
2022-11-08T16:37:04.126Z,8.78
2022-11-08T16:39:33.321Z,9.02
2022-11-08T16:42:03.625Z,9.17
2022-11-08T16:44:33.882Z,9.17
2022-11-08T16:47:01.825Z,9.15
2022-11-08T16:49:33.259Z,9.10
2022-11-08T16:52:01.106Z,9.08
2022-11-08T16:54:28.890Z,9.10
2022-11-08T16:57:33.709Z,8.99
2022-11-08T16:59:50.236Z,9.00
2022-11-08T17:02:52.865Z,9.15
2022-11-08T17:05:26.803Z,9.11
2022-11-08T17:07:56.436Z,9.05
2022-11-08T17:10:30.114Z,9.15
2022-11-08T17:12:59.714Z,9.23
2022-11-08T17:15:30.948Z,9.01
2022-11-08T17:18:00.959Z,8.96
2022-11-08T17:20:32.732Z,8.86
2022-11-08T17:23:00.530Z,8.90
2022-11-08T17:25:30.196Z,8.94
2022-11-08T17:27:58.216Z,8.88
2022-11-08T17:30:37.257Z,8.81
2022-11-08T17:33:05.130Z,9.14
2022-11-08T17:35:37.534Z,9.08
2022-11-08T17:38:09.506Z,9.10
2022-11-08T17:40:39.263Z,8.95
2022-11-08T17:43:13.590Z,9.19
2022-11-08T17:45:42.553Z,8.98
2022-11-08T17:48:12.315Z,9.31
2022-11-08T17:50:41.796Z,9.27
2022-11-08T17:53:11.470Z,9.18
2022-11-08T17:55:39.301Z,9.17
2022-11-08T17:58:08.955Z,8.95
2022-11-08T18:00:38.982Z,8.98
2022-11-08T18:03:17.752Z,8.77
2022-11-08T18:06:02.462Z,8.69
2022-11-08T18:08:35.667Z,8.93
2022-11-08T18:11:06.062Z,8.76
2022-11-08T18:13:37.384Z,8.88
2022-11-08T18:16:22.211Z,8.78
2022-11-08T18:18:53.119Z,8.71
2022-11-08T18:21:21.088Z,8.82
2022-11-08T18:23:50.500Z,8.52
2022-11-08T18:26:20.143Z,8.64
2022-11-08T18:28:49.728Z,8.65
2022-11-08T18:31:22.834Z,8.70
2022-11-08T18:33:52.682Z,8.68
2022-11-08T18:36:27.142Z,9.01
2022-11-08T18:39:01.532Z,8.59
2022-11-08T18:41:34.002Z,8.53
2022-11-08T18:44:03.832Z,8.24
2022-11-08T18:46:40.269Z,8.35
2022-11-08T18:49:12.731Z,8.26
2022-11-08T18:51:42.426Z,8.27
2022-11-08T18:54:11.913Z,8.27
2022-11-08T18:56:41.386Z,8.39
2022-11-08T18:59:10.139Z,8.36
2022-11-08T19:01:39.689Z,8.25
2022-11-08T19:04:09.290Z,8.28
2022-11-08T19:06:38.935Z,8.32
2022-11-08T19:09:08.354Z,8.14
2022-11-08T19:11:38.054Z,8.38
2022-11-08T19:14:06.651Z,8.05
2022-11-08T19:16:36.106Z,8.44
2022-11-08T19:19:04.651Z,8.47
2022-11-08T19:21:34.662Z,8.49
2022-11-08T19:24:08.779Z,8.29
2022-11-08T19:26:39.055Z,8.39
2022-11-08T19:29:11.143Z,8.41
2022-11-08T19:31:42.715Z,8.45
2022-11-08T19:34:12.507Z,8.34
2022-11-08T19:36:44.819Z,8.25
2022-11-08T19:39:14.344Z,8.17
2022-11-08T19:41:43.932Z,8.09
2022-11-08T19:44:13.552Z,8.02
2022-11-08T19:46:43.337Z,8.03
2022-11-08T19:49:12.874Z,7.94
2022-11-08T19:51:43.688Z,8.04
2022-11-08T19:54:15.147Z,8.07
2022-11-08T19:57:04.056Z,7.83
2022-11-08T19:59:34.088Z,7.78
2022-11-08T20:02:03.839Z,7.77
2022-11-08T20:04:36.541Z,7.91
2022-11-08T20:07:04.325Z,7.97
2022-11-08T20:09:35.855Z,7.84
2022-11-08T20:12:08.272Z,8.06
2022-11-08T20:14:37.812Z,8.26
2022-11-08T20:17:07.300Z,7.89
2022-11-08T20:19:40.166Z,7.87
2022-11-08T20:22:10.188Z,7.93
2022-11-08T20:24:39.726Z,7.99
2022-11-08T20:27:09.346Z,8.03
2022-11-08T20:29:38.871Z,8.22
2022-11-08T20:32:07.707Z,8.06
2022-11-08T20:34:38.563Z,8.15
2022-11-08T20:37:08.329Z,8.20
2022-11-08T20:39:41.251Z,8.01
2022-11-08T20:42:10.720Z,7.93
2022-11-08T20:44:40.211Z,8.00
2022-11-08T20:47:09.721Z,7.77
2022-11-08T20:49:39.522Z,7.97
2022-11-08T20:52:09.017Z,8.08
2022-11-08T20:54:43.610Z,8.16
2022-11-08T20:57:14.566Z,8.00
2022-11-08T20:59:43.969Z,8.22
2022-11-08T21:02:15.247Z,8.06
2022-11-08T21:04:44.955Z,7.93
2022-11-08T21:10:35.299Z,8.07
2022-11-08T21:12:52.048Z,8.09
2022-11-08T21:15:25.797Z,7.89
2022-11-08T21:17:56.587Z,7.83
2022-11-08T21:20:26.950Z,7.94
2022-11-08T21:22:56.445Z,7.98
2022-11-08T21:25:25.984Z,7.90
2022-11-08T21:27:55.527Z,7.89
2022-11-08T21:30:25.700Z,7.83
2022-11-08T21:32:54.078Z,7.92
2022-11-08T21:35:23.616Z,7.87
2022-11-08T21:37:51.533Z,7.90
2022-11-08T21:40:22.296Z,7.91
2022-11-08T21:42:52.668Z,7.95
2022-11-08T21:45:22.213Z,7.87
2022-11-08T21:47:53.524Z,8.05
2022-11-08T21:50:23.556Z,7.91
2022-11-08T21:52:53.298Z,7.82
2022-11-08T21:55:22.954Z,7.98
2022-11-08T21:57:52.717Z,8.02
2022-11-08T22:00:22.968Z,8.13
2022-11-08T22:02:54.845Z,8.11
2022-11-08T22:05:24.869Z,8.19
2022-11-08T22:07:52.713Z,8.35
2022-11-08T22:10:22.349Z,8.27
2022-11-08T22:12:51.903Z,8.19
2022-11-08T22:15:21.416Z,8.18
2022-11-08T22:18:14.446Z,8.24
2022-11-08T22:21:00.329Z,8.21
2022-11-08T22:23:29.989Z,8.19
2022-11-08T22:25:59.550Z,7.97
2022-11-08T22:28:29.218Z,8.10
2022-11-08T22:30:58.859Z,8.22
2022-11-08T22:33:28.416Z,8.21
2022-11-08T22:35:57.988Z,8.15
2022-11-08T22:38:26.184Z,8.07
2022-11-08T22:40:55.827Z,8.09
2022-11-08T22:43:25.409Z,8.03
2022-11-08T22:45:55.002Z,7.91
2022-11-08T22:48:24.585Z,7.77
2022-11-08T22:50:53.162Z,7.92
2022-11-08T22:53:22.653Z,7.95
2022-11-08T22:55:55.483Z,8.10
2022-11-08T22:58:24.940Z,8.00
2022-11-08T23:00:54.532Z,7.76
2022-11-08T23:03:24.497Z,7.90
2022-11-08T23:05:56.928Z,7.99
2022-11-08T23:08:27.812Z,7.79
2022-11-08T23:11:19.457Z,7.87
2022-11-08T23:14:08.080Z,7.78
2022-11-08T23:16:46.736Z,8.08
2022-11-08T23:19:40.867Z,7.77
2022-11-08T23:22:35.184Z,7.85
2022-11-08T23:25:05.896Z,7.74
2022-11-08T23:27:54.198Z,7.73
2022-11-08T23:30:42.618Z,7.63
2022-11-08T23:33:12.086Z,7.67
2022-11-08T23:36:01.498Z,7.70
2022-11-08T23:38:30.966Z,7.67
2022-11-08T23:41:39.044Z,7.76
2022-11-08T23:44:24.214Z,7.76
2022-11-08T23:47:00.118Z,7.67
2022-11-08T23:49:30.196Z,7.57
2022-11-08T23:51:59.631Z,7.54
2022-11-08T23:54:29.029Z,7.57
2022-11-08T23:56:57.539Z,7.64
2022-11-08T23:59:27.099Z,7.60
